createdAt,value
2023-03-26T00:01:34.142Z,6.18
2023-03-26T00:04:03.798Z,6.18
2023-03-26T00:06:34.445Z,6.20
2023-03-26T00:09:02.268Z,6.21
2023-03-26T00:11:30.183Z,6.21
2023-03-26T00:13:58.201Z,6.22
2023-03-26T00:16:30.172Z,6.22
2023-03-26T00:18:59.044Z,6.23
2023-03-26T00:21:28.691Z,6.24
2023-03-26T00:23:58.605Z,6.25
2023-03-26T00:26:29.882Z,6.27
2023-03-26T00:28:58.262Z,6.28
2023-03-26T00:31:26.290Z,6.29
2023-03-26T00:33:54.618Z,6.30
2023-03-26T00:36:24.659Z,6.32
2023-03-26T00:38:52.523Z,6.33
2023-03-26T00:41:21.976Z,6.34
2023-03-26T00:43:51.752Z,6.29
2023-03-26T00:46:19.634Z,6.20
2023-03-26T00:48:47.629Z,6.09
2023-03-26T00:51:19.537Z,5.99
2023-03-26T00:53:49.374Z,5.89
2023-03-26T00:56:18.611Z,5.81
2023-03-26T00:58:46.602Z,5.74
2023-03-26T01:01:17.206Z,5.70
2023-03-26T01:03:53.619Z,5.68
2023-03-26T01:06:30.721Z,5.66
2023-03-26T01:09:04.136Z,5.62
2023-03-26T01:11:34.668Z,5.58
2023-03-26T01:14:08.280Z,5.53
2023-03-26T01:16:53.093Z,5.48
2023-03-26T01:19:25.620Z,5.44
2023-03-26T01:21:53.185Z,5.38
2023-03-26T01:24:20.915Z,5.35
2023-03-26T01:27:00.386Z,5.31
2023-03-26T01:29:33.314Z,5.26
2023-03-26T01:32:06.094Z,5.24
2023-03-26T01:34:56.198Z,5.18
2023-03-26T01:37:34.334Z,5.10
2023-03-26T01:40:08.986Z,5.05
2023-03-26T01:42:43.576Z,5.01
2023-03-26T01:45:17.781Z,4.98
2023-03-26T01:47:46.655Z,4.95
2023-03-26T01:50:14.410Z,4.90
2023-03-26T01:52:42.066Z,4.86
2023-03-26T01:55:10.735Z,4.83
2023-03-26T01:57:44.332Z,4.78
2023-03-26T02:00:28.415Z,4.73
2023-03-26T02:03:18.345Z,4.70
2023-03-26T02:05:55.090Z,4.69
2023-03-26T02:08:28.573Z,4.71
2023-03-26T02:10:59.447Z,4.74
2023-03-26T02:13:27.332Z,4.74
2023-03-26T02:16:00.741Z,4.74
2023-03-26T02:18:29.430Z,4.72
2023-03-26T02:20:57.005Z,4.71
2023-03-26T02:23:24.565Z,4.71
2023-03-26T02:25:52.428Z,4.72
2023-03-26T02:28:20.226Z,4.74
2023-03-26T02:30:47.801Z,4.78
2023-03-26T02:33:15.372Z,4.84
2023-03-26T02:35:43.066Z,4.90
2023-03-26T02:38:10.687Z,4.95
2023-03-26T02:40:38.220Z,5.00
2023-03-26T02:43:05.907Z,5.04
2023-03-26T02:45:33.500Z,5.07
2023-03-26T02:48:01.192Z,5.10
2023-03-26T02:50:29.040Z,5.12
2023-03-26T02:52:56.847Z,5.17
2023-03-26T02:55:24.415Z,5.19
2023-03-26T02:57:51.987Z,5.25
2023-03-26T03:00:19.960Z,5.30
2023-03-26T03:02:48.689Z,5.34
2023-03-26T03:05:16.802Z,5.36
2023-03-26T03:07:45.554Z,5.36
2023-03-26T03:10:14.587Z,5.35
2023-03-26T03:12:42.897Z,5.34
2023-03-26T03:15:11.003Z,5.32
2023-03-26T03:17:38.657Z,5.30
2023-03-26T03:20:07.425Z,5.27
2023-03-26T03:22:35.995Z,5.25
2023-03-26T03:25:04.929Z,5.23
2023-03-26T03:27:32.509Z,5.23
2023-03-26T03:30:00.159Z,5.24
2023-03-26T03:32:27.802Z,5.24
2023-03-26T03:34:55.601Z,5.23
2023-03-26T03:37:23.176Z,5.21
2023-03-26T03:39:50.757Z,5.22
2023-03-26T03:42:18.605Z,5.22
2023-03-26T03:44:46.157Z,5.23
2023-03-26T03:47:13.790Z,5.24
2023-03-26T03:49:41.501Z,5.21
2023-03-26T03:52:09.081Z,5.18
2023-03-26T03:54:36.705Z,5.15
2023-03-26T03:57:04.419Z,5.11
2023-03-26T03:59:31.982Z,5.10
2023-03-26T04:01:59.522Z,5.10
2023-03-26T04:04:27.184Z,5.12
2023-03-26T04:06:54.964Z,5.13
2023-03-26T04:09:22.563Z,5.15
2023-03-26T04:11:50.160Z,5.20
2023-03-26T04:14:17.742Z,5.22
2023-03-26T04:16:45.281Z,5.23
2023-03-26T04:19:12.856Z,5.24
2023-03-26T04:21:41.122Z,5.25
2023-03-26T04:24:09.502Z,5.25
2023-03-26T04:26:37.108Z,5.27
2023-03-26T04:29:06.862Z,5.29
2023-03-26T04:31:34.503Z,5.31
2023-03-26T04:34:20.921Z,5.32
2023-03-26T04:36:48.505Z,5.33
2023-03-26T04:39:16.164Z,5.34
2023-03-26T04:41:43.727Z,5.36
2023-03-26T04:44:11.294Z,5.39
2023-03-26T04:46:38.871Z,5.43
2023-03-26T04:49:06.459Z,5.51
2023-03-26T04:51:38.050Z,5.58
2023-03-26T04:54:06.018Z,5.65
2023-03-26T04:56:45.881Z,5.67
2023-03-26T04:59:17.924Z,5.73
2023-03-26T05:01:45.565Z,5.76
2023-03-26T05:04:13.756Z,5.78
2023-03-26T05:06:41.953Z,5.79
2023-03-26T05:09:09.516Z,5.81
2023-03-26T05:11:37.352Z,5.83
2023-03-26T05:14:04.919Z,5.87
2023-03-26T05:16:33.042Z,5.91
2023-03-26T05:19:00.677Z,5.93
2023-03-26T05:21:28.445Z,5.91
2023-03-26T05:23:56.085Z,5.93
2023-03-26T05:26:23.860Z,5.95
2023-03-26T05:28:52.546Z,5.93
2023-03-26T05:31:20.568Z,5.98
2023-03-26T05:33:48.966Z,6.01
2023-03-26T05:36:17.016Z,6.05
2023-03-26T05:38:44.870Z,6.11
2023-03-26T05:41:12.753Z,6.18
2023-03-26T05:43:40.366Z,6.28
2023-03-26T05:46:08.372Z,6.38
2023-03-26T05:48:35.976Z,6.47
2023-03-26T05:51:04.218Z,6.48
2023-03-26T05:53:31.989Z,6.48
2023-03-26T05:55:59.595Z,6.49
2023-03-26T05:58:29.579Z,6.52
2023-03-26T06:01:09.260Z,6.59
2023-03-26T06:03:39.531Z,6.68
2023-03-26T06:06:09.184Z,6.77
2023-03-26T06:08:36.847Z,6.87
2023-03-26T06:11:05.864Z,6.96
2023-03-26T06:13:33.627Z,7.05
2023-03-26T06:16:01.240Z,7.13
2023-03-26T06:18:28.863Z,7.21
2023-03-26T06:20:56.601Z,7.29
2023-03-26T06:23:24.475Z,7.33
2023-03-26T06:25:52.101Z,7.36
2023-03-26T06:28:19.713Z,7.42
2023-03-26T06:30:47.391Z,7.44
2023-03-26T06:33:14.999Z,7.41
2023-03-26T06:35:42.638Z,7.38
2023-03-26T06:38:10.270Z,7.44
2023-03-26T06:40:38.042Z,7.57
2023-03-26T06:43:09.477Z,7.76
2023-03-26T06:45:38.419Z,7.94
2023-03-26T06:48:06.324Z,8.15
2023-03-26T06:50:34.385Z,8.31
2023-03-26T06:53:02.067Z,8.45
2023-03-26T06:55:29.713Z,8.55
2023-03-26T06:57:57.326Z,8.55
2023-03-26T07:00:24.973Z,8.47
2023-03-26T07:02:52.881Z,8.44
2023-03-26T07:05:20.792Z,8.46
2023-03-26T07:07:50.433Z,8.50
2023-03-26T07:10:18.169Z,8.46
2023-03-26T07:12:45.745Z,8.37
2023-03-26T07:15:13.428Z,8.33
2023-03-26T07:17:41.220Z,8.34
2023-03-26T07:20:09.421Z,8.44
2023-03-26T07:22:37.447Z,8.57
2023-03-26T07:25:06.202Z,8.73
2023-03-26T07:27:57.098Z,8.95
2023-03-26T07:30:29.082Z,9.06
2023-03-26T07:33:06.415Z,9.10
2023-03-26T07:35:43.812Z,9.03
2023-03-26T07:38:14.388Z,8.99
2023-03-26T07:40:52.919Z,8.94
2023-03-26T07:43:48.980Z,8.92
2023-03-26T07:46:17.811Z,8.99
2023-03-26T07:48:46.466Z,9.11
2023-03-26T07:51:14.782Z,9.27
2023-03-26T07:53:42.577Z,9.43
2023-03-26T07:56:19.172Z,9.61
2023-03-26T07:59:08.740Z,9.74
2023-03-26T08:01:54.476Z,9.85
2023-03-26T08:04:43.838Z,9.84
2023-03-26T08:07:29.076Z,9.85
2023-03-26T08:10:30.854Z,9.97
2023-03-26T08:13:30.696Z,10.18
2023-03-26T08:16:28.348Z,10.37
2023-03-26T08:19:03.684Z,10.36
2023-03-26T08:21:54.171Z,10.41
2023-03-26T08:24:33.927Z,10.37
2023-03-26T08:27:20.731Z,10.43
2023-03-26T08:30:00.340Z,10.70
2023-03-26T08:32:28.968Z,11.07
2023-03-26T08:34:56.565Z,11.40
2023-03-26T08:37:24.260Z,11.59
2023-03-26T08:39:51.835Z,11.71
2023-03-26T08:42:29.136Z,11.70
2023-03-26T08:45:18.462Z,11.88
2023-03-26T08:48:23.245Z,12.01
2023-03-26T08:50:56.907Z,12.20
2023-03-26T08:53:57.040Z,12.28
2023-03-26T08:56:49.466Z,12.35
2023-03-26T08:59:41.559Z,12.27
2023-03-26T09:02:15.090Z,12.20
2023-03-26T09:05:10.117Z,12.06
2023-03-26T09:08:25.434Z,11.96
2023-03-26T09:11:24.997Z,11.99
2023-03-26T09:14:11.075Z,12.22
2023-03-26T09:16:56.643Z,12.31
2023-03-26T09:19:46.162Z,12.48
2023-03-26T09:22:41.676Z,12.47
2023-03-26T09:25:30.614Z,12.65
2023-03-26T09:28:35.771Z,12.84
2023-03-26T09:31:09.158Z,13.03
2023-03-26T09:33:55.052Z,12.94
2023-03-26T09:36:32.272Z,12.82
2023-03-26T09:39:10.202Z,12.79
2023-03-26T09:41:43.404Z,12.93
2023-03-26T09:44:19.838Z,12.89
2023-03-26T09:46:47.380Z,12.62
2023-03-26T09:49:26.465Z,12.56
2023-03-26T09:52:01.801Z,12.74
2023-03-26T09:54:58.502Z,13.21
2023-03-26T09:57:54.195Z,13.40
2023-03-26T10:00:43.580Z,13.40
2023-03-26T10:03:11.197Z,13.27
2023-03-26T10:05:50.861Z,13.11
2023-03-26T10:08:37.005Z,13.07
2023-03-26T10:11:32.916Z,12.86
2023-03-26T10:14:11.093Z,12.54
2023-03-26T10:16:50.936Z,12.07
2023-03-26T10:19:39.405Z,11.29
2023-03-26T10:22:28.875Z,9.73
2023-03-26T10:25:15.242Z,8.99
2023-03-26T10:28:09.379Z,8.58
2023-03-26T10:30:44.866Z,8.49
2023-03-26T10:33:37.588Z,8.49
2023-03-26T10:36:31.691Z,8.53
2023-03-26T10:38:59.243Z,8.53
2023-03-26T10:41:51.727Z,8.60
2023-03-26T10:44:57.930Z,8.88
2023-03-26T10:47:25.494Z,9.31
2023-03-26T10:50:35.008Z,9.71
2023-03-26T10:53:27.186Z,10.29
2023-03-26T10:56:02.838Z,11.04
2023-03-26T10:58:49.646Z,11.30
2023-03-26T11:01:36.889Z,11.62
2023-03-26T11:04:33.614Z,11.93
2023-03-26T11:07:17.728Z,12.49
2023-03-26T11:09:51.319Z,13.35
2023-03-26T11:12:30.953Z,14.97
2023-03-26T11:15:01.296Z,15.98
2023-03-26T11:17:40.259Z,15.33
2023-03-26T11:20:32.025Z,14.45
2023-03-26T11:23:02.284Z,13.57
2023-03-26T11:25:29.826Z,12.99
2023-03-26T11:28:08.939Z,12.74
2023-03-26T11:30:42.365Z,12.82
2023-03-26T11:33:15.143Z,13.19
2023-03-26T11:35:51.378Z,13.69
2023-03-26T11:38:24.693Z,14.88
2023-03-26T11:40:55.800Z,15.94
2023-03-26T11:43:34.367Z,16.01
2023-03-26T11:46:04.401Z,15.66
2023-03-26T11:48:42.880Z,15.48
2023-03-26T11:51:18.292Z,15.51
2023-03-26T11:53:46.069Z,15.02
2023-03-26T11:56:40.764Z,15.30
2023-03-26T11:59:55.619Z,15.80
2023-03-26T12:02:26.360Z,17.68
2023-03-26T12:05:14.129Z,19.33
2023-03-26T12:07:55.132Z,20.60
2023-03-26T12:10:33.530Z,19.26
2023-03-26T12:13:33.788Z,17.95
2023-03-26T12:16:05.425Z,16.44
2023-03-26T12:18:33.074Z,15.28
2023-03-26T12:21:08.557Z,14.53
2023-03-26T12:23:44.092Z,14.27
2023-03-26T12:26:18.186Z,14.10
2023-03-26T12:28:48.636Z,13.97
2023-03-26T12:31:18.505Z,13.97
2023-03-26T12:34:13.097Z,14.01
2023-03-26T12:36:48.434Z,14.02
2023-03-26T12:40:10.095Z,13.85
2023-03-26T12:44:49.265Z,13.61
2023-03-26T12:45:23.194Z,15.25
2023-03-26T12:48:01.247Z,18.52
2023-03-26T12:50:42.200Z,18.75
2023-03-26T12:53:47.240Z,18.13
2023-03-26T12:56:25.269Z,17.06
2023-03-26T12:58:55.728Z,16.49
2023-03-26T13:01:37.145Z,15.92
2023-03-26T13:04:31.929Z,15.53
2023-03-26T13:07:09.291Z,15.10
2023-03-26T13:09:39.696Z,15.71
2023-03-26T13:12:17.052Z,16.88
2023-03-26T13:14:57.064Z,16.71
2023-03-26T13:17:57.229Z,16.83
2023-03-26T13:20:48.753Z,18.02
2023-03-26T13:23:51.885Z,17.89
2023-03-26T13:26:38.095Z,19.25
2023-03-26T13:29:14.687Z,20.81
2023-03-26T13:31:56.128Z,21.12
2023-03-26T13:34:41.755Z,20.02
2023-03-26T13:37:24.023Z,19.37
2023-03-26T13:40:03.426Z,18.55
2023-03-26T13:42:48.254Z,20.57
2023-03-26T13:45:37.458Z,22.28
2023-03-26T13:48:12.895Z,23.05
2023-03-26T13:50:44.280Z,22.86
2023-03-26T13:53:18.278Z,22.74
2023-03-26T13:55:55.899Z,22.01
2023-03-26T13:58:41.895Z,20.56
2023-03-26T14:01:14.639Z,19.29
2023-03-26T14:03:48.350Z,18.19
2023-03-26T14:06:22.914Z,17.03
2023-03-26T14:09:03.242Z,16.16
2023-03-26T14:11:45.809Z,15.74
2023-03-26T14:14:31.636Z,15.29
2023-03-26T14:17:15.001Z,14.80
2023-03-26T14:20:04.393Z,14.38
2023-03-26T14:22:50.176Z,13.99
2023-03-26T14:25:55.776Z,13.64
2023-03-26T14:28:50.428Z,13.34
2023-03-26T14:31:23.919Z,12.99
2023-03-26T14:34:00.258Z,12.70
2023-03-26T14:36:46.421Z,12.50
2023-03-26T14:39:51.511Z,12.42
2023-03-26T14:42:29.582Z,12.48
2023-03-26T14:45:23.495Z,12.53
2023-03-26T14:48:35.973Z,12.58
2023-03-26T14:51:21.847Z,12.52
2023-03-26T14:54:08.949Z,12.48
2023-03-26T14:57:05.210Z,12.44
2023-03-26T15:00:07.079Z,12.30
2023-03-26T15:03:05.563Z,12.16
2023-03-26T15:06:03.736Z,12.05
2023-03-26T15:08:52.803Z,12.03
2023-03-26T15:12:12.132Z,12.10
2023-03-26T15:15:01.034Z,12.22
2023-03-26T15:17:31.848Z,12.26
2023-03-26T15:20:41.757Z,12.29
2023-03-26T15:23:21.513Z,12.30
2023-03-26T15:26:23.074Z,12.29
2023-03-26T15:29:07.226Z,12.59
2023-03-26T15:31:56.767Z,12.73
2023-03-26T15:34:42.639Z,12.91
2023-03-26T15:37:19.315Z,12.98
2023-03-26T15:40:05.422Z,12.92
2023-03-26T15:42:41.729Z,12.82
2023-03-26T15:45:30.229Z,12.72
2023-03-26T15:48:17.445Z,12.64
2023-03-26T15:50:54.234Z,12.72
2023-03-26T15:53:40.668Z,13.22
2023-03-26T15:56:20.384Z,13.31
2023-03-26T15:58:58.322Z,13.20
2023-03-26T16:01:29.875Z,13.07
2023-03-26T16:04:17.240Z,13.02
2023-03-26T16:07:00.817Z,13.02
2023-03-26T16:09:41.242Z,13.24
2023-03-26T16:12:11.877Z,13.21
2023-03-26T16:14:45.284Z,13.02
2023-03-26T16:17:17.158Z,12.80
2023-03-26T16:19:50.915Z,12.64
2023-03-26T16:22:52.392Z,12.61
2023-03-26T16:25:30.672Z,12.63
2023-03-26T16:28:10.440Z,12.47
2023-03-26T16:30:38.743Z,12.26
2023-03-26T16:33:15.350Z,12.07
2023-03-26T16:35:51.924Z,11.90
2023-03-26T16:38:24.306Z,11.77
2023-03-26T16:41:03.460Z,11.67
2023-03-26T16:44:06.465Z,11.57
2023-03-26T16:47:03.603Z,11.48
2023-03-26T16:50:11.027Z,11.39
2023-03-26T16:52:58.808Z,11.27
2023-03-26T16:55:45.515Z,11.15
2023-03-26T16:58:25.712Z,11.04
2023-03-26T17:01:29.619Z,10.90
2023-03-26T17:04:03.973Z,10.75
2023-03-26T17:06:43.642Z,10.62
2023-03-26T17:09:23.916Z,10.49
2023-03-26T17:12:07.742Z,10.35
2023-03-26T17:14:44.348Z,10.24
2023-03-26T17:17:17.717Z,10.10
2023-03-26T17:20:08.931Z,9.98
2023-03-26T17:22:45.849Z,9.86
2023-03-26T17:25:27.064Z,9.74
2023-03-26T17:28:25.578Z,9.61
2023-03-26T17:31:09.906Z,9.49
2023-03-26T17:33:38.936Z,9.42
2023-03-26T17:36:12.818Z,9.43
2023-03-26T17:38:40.378Z,9.42
2023-03-26T17:41:34.013Z,9.45
2023-03-26T17:44:25.852Z,9.52
2023-03-26T17:46:57.019Z,9.53
2023-03-26T17:49:28.895Z,9.54
2023-03-26T17:52:17.393Z,9.58
2023-03-26T17:54:49.049Z,9.57
2023-03-26T17:57:25.211Z,9.55
2023-03-26T17:59:58.023Z,9.50
2023-03-26T18:02:36.034Z,9.49
2023-03-26T18:05:08.313Z,9.46
2023-03-26T18:08:13.710Z,9.40
2023-03-26T18:11:01.570Z,9.34
2023-03-26T18:14:02.244Z,9.28
2023-03-26T18:16:49.560Z,9.23
2023-03-26T18:19:19.596Z,9.18
2023-03-26T18:21:50.954Z,9.13
2023-03-26T18:24:26.604Z,9.09
2023-03-26T18:27:05.920Z,9.05
2023-03-26T18:29:35.956Z,9.03
2023-03-26T18:32:23.779Z,9.03
2023-03-26T18:34:58.971Z,9.04
2023-03-26T18:37:35.415Z,9.05
2023-03-26T18:40:09.901Z,9.05
2023-03-26T18:42:40.298Z,9.04
2023-03-26T18:45:30.811Z,9.04
2023-03-26T18:48:02.791Z,9.06
2023-03-26T18:50:35.092Z,9.07
2023-03-26T18:53:06.160Z,9.09
2023-03-26T18:55:35.244Z,9.09
2023-03-26T18:58:22.716Z,9.10
2023-03-26T19:00:56.322Z,9.10
2023-03-26T19:03:24.665Z,9.12
2023-03-26T19:05:54.262Z,9.17
2023-03-26T19:08:24.142Z,9.24
2023-03-26T19:10:54.063Z,9.31
2023-03-26T19:13:23.001Z,9.33
2023-03-26T19:15:54.321Z,9.36
2023-03-26T19:18:25.194Z,9.35
2023-03-26T19:20:59.312Z,9.33
2023-03-26T19:23:32.132Z,9.31
2023-03-26T19:26:02.350Z,9.26
2023-03-26T19:28:33.651Z,9.21
2023-03-26T19:31:22.907Z,9.17
2023-03-26T19:33:57.035Z,9.12
2023-03-26T19:36:28.222Z,9.09
2023-03-26T19:38:58.775Z,9.06
2023-03-26T19:41:39.320Z,9.04
2023-03-26T19:44:18.861Z,9.01
2023-03-26T19:46:53.712Z,8.99
2023-03-26T19:49:30.027Z,8.97
2023-03-26T19:52:12.701Z,8.93
2023-03-26T19:54:59.542Z,8.89
2023-03-26T19:57:33.015Z,8.83
2023-03-26T20:00:00.659Z,8.75
2023-03-26T20:02:28.595Z,8.64
2023-03-26T20:04:56.532Z,8.44
2023-03-26T20:07:35.006Z,8.22
2023-03-26T20:10:05.076Z,8.02
2023-03-26T20:12:33.035Z,7.86
2023-03-26T20:15:00.907Z,7.70
2023-03-26T20:17:28.570Z,7.58
2023-03-26T20:19:56.316Z,7.46
2023-03-26T20:22:23.884Z,7.35
2023-03-26T20:24:51.487Z,7.25
2023-03-26T20:27:19.023Z,7.17
2023-03-26T20:29:46.704Z,7.09
2023-03-26T20:32:24.215Z,7.01
2023-03-26T20:34:52.723Z,6.93
2023-03-26T20:37:20.339Z,6.87
2023-03-26T20:39:47.892Z,6.82
2023-03-26T20:42:16.274Z,6.77
2023-03-26T20:44:43.858Z,6.72
2023-03-26T20:47:11.568Z,6.69
2023-03-26T20:49:39.371Z,6.66
2023-03-26T20:52:07.031Z,6.63
2023-03-26T20:54:34.772Z,6.61
2023-03-26T20:57:02.593Z,6.60
2023-03-26T20:59:30.320Z,6.59
2023-03-26T21:01:58.328Z,6.57
2023-03-26T21:04:27.070Z,6.56
2023-03-26T21:07:00.616Z,6.56
2023-03-26T21:09:35.740Z,6.55
2023-03-26T21:12:06.541Z,6.55
2023-03-26T21:14:35.255Z,6.54
2023-03-26T21:17:03.266Z,6.56
2023-03-26T21:19:31.235Z,6.56
2023-03-26T21:22:11.729Z,6.57
2023-03-26T21:24:59.941Z,6.58
2023-03-26T21:27:56.890Z,6.58
2023-03-26T21:30:24.855Z,6.58
2023-03-26T21:32:53.395Z,6.58
2023-03-26T21:35:21.622Z,6.59
2023-03-26T21:37:49.743Z,6.61
2023-03-26T21:40:18.736Z,6.60
2023-03-26T21:42:51.607Z,6.61
2023-03-26T21:45:20.355Z,6.59
2023-03-26T21:47:48.989Z,6.58
2023-03-26T21:50:19.825Z,6.57
2023-03-26T21:52:48.042Z,6.56
2023-03-26T21:55:18.103Z,6.55
2023-03-26T21:58:04.096Z,6.53
2023-03-26T22:01:12.498Z,6.51
2023-03-26T22:03:55.248Z,6.52
2023-03-26T22:06:29.306Z,6.53
2023-03-26T22:08:57.141Z,6.54
2023-03-26T22:11:25.235Z,6.55
2023-03-26T22:13:52.939Z,6.55
2023-03-26T22:16:20.568Z,6.57
2023-03-26T22:18:48.140Z,6.57
2023-03-26T22:21:15.744Z,6.57
2023-03-26T22:23:43.331Z,6.57
2023-03-26T22:26:10.886Z,6.57
2023-03-26T22:28:38.571Z,6.57
2023-03-26T22:31:09.690Z,6.57
2023-03-26T22:33:38.888Z,6.57
2023-03-26T22:36:22.598Z,6.57
2023-03-26T22:38:53.085Z,6.56
2023-03-26T22:41:21.841Z,6.56
2023-03-26T22:43:49.604Z,6.55
2023-03-26T22:46:17.517Z,6.55
2023-03-26T22:48:45.239Z,6.54
2023-03-26T22:51:12.895Z,6.53
2023-03-26T22:53:40.733Z,6.53
2023-03-26T22:56:08.825Z,6.54
2023-03-26T22:58:36.668Z,6.53
2023-03-26T23:01:08.096Z,6.53
2023-03-26T23:03:36.593Z,6.52
2023-03-26T23:06:07.662Z,6.52
2023-03-26T23:08:36.006Z,6.52
2023-03-26T23:11:15.149Z,6.52
2023-03-26T23:13:44.489Z,6.51
2023-03-26T23:16:13.070Z,6.50
2023-03-26T23:18:41.092Z,6.48
2023-03-26T23:21:17.348Z,6.48
2023-03-26T23:23:45.104Z,6.47
2023-03-26T23:26:12.881Z,6.44
2023-03-26T23:28:40.790Z,6.44
2023-03-26T23:31:10.022Z,6.44
2023-03-26T23:33:38.930Z,6.44
2023-03-26T23:36:08.178Z,6.44
2023-03-26T23:38:43.764Z,6.44
2023-03-26T23:41:13.767Z,6.44
2023-03-26T23:43:54.635Z,6.43
2023-03-26T23:46:27.735Z,6.42
2023-03-26T23:48:55.465Z,6.40
2023-03-26T23:51:23.087Z,6.39
2023-03-26T23:53:50.656Z,6.39
2023-03-26T23:56:18.284Z,6.37
2023-03-26T23:58:45.869Z,6.37
